createdAt,value
2023-09-28T00:01:28.264Z,2.80
2023-09-28T00:03:56.821Z,3.30
2023-09-28T00:06:25.417Z,2.70
2023-09-28T00:08:53.589Z,2.80
2023-09-28T00:11:22.099Z,3.00
2023-09-28T00:13:50.374Z,2.70
2023-09-28T00:16:19.153Z,3.90
2023-09-28T00:18:48.491Z,3.00
2023-09-28T00:21:16.645Z,3.70
2023-09-28T00:23:44.797Z,4.00
2023-09-28T00:26:13.655Z,3.50
2023-09-28T00:28:43.937Z,3.30
2023-09-28T00:31:12.253Z,3.60
2023-09-28T00:33:40.492Z,3.40
2023-09-28T00:36:08.673Z,3.00
2023-09-28T00:38:37.987Z,2.80
2023-09-28T00:41:06.557Z,3.00
2023-09-28T00:43:36.071Z,2.90
2023-09-28T00:46:04.461Z,2.50
2023-09-28T00:48:38.993Z,3.10
2023-09-28T00:51:08.200Z,3.20
2023-09-28T00:53:36.417Z,2.90
2023-09-28T00:56:09.081Z,3.00
2023-09-28T00:58:39.525Z,2.30
2023-09-28T01:01:12.710Z,3.20
2023-09-28T01:03:41.165Z,3.10
2023-09-28T01:06:09.481Z,2.80
2023-09-28T01:08:38.274Z,2.80
2023-09-28T01:11:11.238Z,4.10
2023-09-28T01:13:41.072Z,2.70
2023-09-28T01:16:09.574Z,2.90
2023-09-28T01:18:37.831Z,3.20
2023-09-28T01:21:07.728Z,3.10
2023-09-28T01:23:36.759Z,3.40
2023-09-28T01:26:08.330Z,2.70
2023-09-28T01:28:36.623Z,2.60
2023-09-28T01:31:04.876Z,3.00
2023-09-28T01:33:33.099Z,4.20
2023-09-28T01:36:01.989Z,3.00
2023-09-28T01:38:40.003Z,3.50
2023-09-28T01:41:08.515Z,3.90
2023-09-28T01:43:38.362Z,2.90
2023-09-28T01:46:06.702Z,3.50
2023-09-28T01:48:35.208Z,2.90
2023-09-28T01:51:04.009Z,3.30
2023-09-28T01:53:32.212Z,2.70
2023-09-28T01:56:05.674Z,3.30
2023-09-28T01:58:37.518Z,2.90
2023-09-28T02:01:05.826Z,3.00
2023-09-28T02:03:35.147Z,3.70
2023-09-28T02:06:06.225Z,3.40
2023-09-28T02:08:35.731Z,3.20
2023-09-28T02:11:04.655Z,3.00
2023-09-28T02:13:33.301Z,3.60
2023-09-28T02:16:01.493Z,3.00
2023-09-28T02:18:29.739Z,3.30
2023-09-28T02:21:01.109Z,3.70
2023-09-28T02:23:29.418Z,2.90
2023-09-28T02:26:06.675Z,3.30
2023-09-28T02:28:35.336Z,3.20
2023-09-28T02:31:08.733Z,2.50
2023-09-28T02:33:36.922Z,2.90
2023-09-28T02:36:06.312Z,3.40
2023-09-28T02:38:34.491Z,2.80
2023-09-28T02:41:02.789Z,2.70
2023-09-28T02:43:31.058Z,3.20
2023-09-28T02:45:59.174Z,3.00
2023-09-28T02:48:28.863Z,2.50
2023-09-28T02:50:57.038Z,2.30
2023-09-28T02:53:25.236Z,2.70
2023-09-28T02:55:54.002Z,2.80
2023-09-28T02:58:23.542Z,3.10
2023-09-28T03:00:53.829Z,2.60
2023-09-28T03:03:21.985Z,2.40
2023-09-28T03:05:50.159Z,2.60
2023-09-28T03:08:18.546Z,2.40
2023-09-28T03:10:46.836Z,3.00
2023-09-28T03:13:15.413Z,3.00
2023-09-28T03:15:45.232Z,2.60
2023-09-28T03:18:15.146Z,2.80
2023-09-28T03:20:45.902Z,3.40
2023-09-28T03:23:14.729Z,2.30
2023-09-28T03:25:44.359Z,2.90
2023-09-28T03:28:13.049Z,2.30
2023-09-28T03:30:41.537Z,2.50
2023-09-28T03:33:09.770Z,2.50
2023-09-28T03:35:38.209Z,2.90
2023-09-28T03:38:07.284Z,2.20
2023-09-28T03:40:35.872Z,2.30
2023-09-28T03:43:04.301Z,2.60
2023-09-28T03:45:32.555Z,3.10
2023-09-28T03:48:00.788Z,2.60
2023-09-28T03:50:29.732Z,2.70
2023-09-28T03:52:58.054Z,3.00
2023-09-28T03:55:26.585Z,3.40
2023-09-28T03:57:54.779Z,2.80
2023-09-28T04:00:23.035Z,2.40
2023-09-28T04:02:55.277Z,2.40
2023-09-28T04:05:25.490Z,2.70
2023-09-28T04:07:54.501Z,2.90
2023-09-28T04:10:24.683Z,3.00
2023-09-28T04:12:54.755Z,3.40
2023-09-28T04:15:24.340Z,3.60
2023-09-28T04:17:53.745Z,3.50
2023-09-28T04:20:22.207Z,2.80
2023-09-28T04:22:51.484Z,2.70
2023-09-28T04:25:21.551Z,2.60
2023-09-28T04:27:51.667Z,3.60
2023-09-28T04:30:23.222Z,3.60
2023-09-28T04:32:55.843Z,2.80
2023-09-28T04:35:24.586Z,2.60
2023-09-28T04:37:53.578Z,2.70
2023-09-28T04:40:26.177Z,3.10
2023-09-28T04:42:55.580Z,3.20
2023-09-28T04:45:24.840Z,3.30
2023-09-28T04:47:53.815Z,3.00
2023-09-28T04:50:24.489Z,2.90
2023-09-28T04:52:53.061Z,2.80
2023-09-28T04:55:21.320Z,3.10
2023-09-28T04:57:50.236Z,3.60
2023-09-28T05:00:20.539Z,3.00
2023-09-28T05:02:49.411Z,3.30
2023-09-28T05:05:18.508Z,3.90
2023-09-28T05:07:47.226Z,3.40
2023-09-28T05:10:15.754Z,3.60
2023-09-28T05:12:44.942Z,3.10
2023-09-28T05:15:15.465Z,3.50
2023-09-28T05:17:44.899Z,3.10
2023-09-28T05:20:13.296Z,3.60
2023-09-28T05:22:41.926Z,3.70
2023-09-28T05:25:10.800Z,3.90
2023-09-28T05:27:39.288Z,4.20
2023-09-28T05:30:08.149Z,4.80
2023-09-28T05:32:36.520Z,4.00
2023-09-28T05:35:06.775Z,4.10
2023-09-28T05:37:35.245Z,3.90
2023-09-28T05:40:06.006Z,4.30
2023-09-28T05:42:35.989Z,4.00
2023-09-28T05:45:04.888Z,3.70
2023-09-28T05:47:36.098Z,5.60
2023-09-28T05:50:08.856Z,5.00
2023-09-28T05:52:37.209Z,4.70
2023-09-28T05:55:05.926Z,5.60
2023-09-28T05:57:34.287Z,4.50
2023-09-28T06:00:08.554Z,4.60
2023-09-28T06:02:38.017Z,4.90
2023-09-28T06:05:07.761Z,4.70
2023-09-28T06:07:38.443Z,4.40
2023-09-28T06:10:09.609Z,5.20
2023-09-28T06:12:37.898Z,5.30
2023-09-28T06:15:09.298Z,4.90
2023-09-28T06:17:37.720Z,5.10
2023-09-28T06:20:07.451Z,4.90
2023-09-28T06:22:35.794Z,5.30
2023-09-28T06:25:04.618Z,4.80
2023-09-28T06:27:33.532Z,5.50
2023-09-28T06:30:04.005Z,5.10
2023-09-28T06:32:32.397Z,6.00
2023-09-28T06:35:01.286Z,5.40
2023-09-28T06:37:31.666Z,5.20
2023-09-28T06:39:59.987Z,4.70
2023-09-28T06:45:03.515Z,5.20
2023-09-28T06:47:46.369Z,5.60
2023-09-28T06:50:21.275Z,5.50
2023-09-28T06:52:49.832Z,5.40
2023-09-28T06:55:18.632Z,5.80
2023-09-28T06:57:47.832Z,6.20
2023-09-28T07:00:18.461Z,6.20
2023-09-28T07:02:49.107Z,7.00
2023-09-28T07:05:18.650Z,5.80
2023-09-28T07:07:47.988Z,6.20
2023-09-28T07:10:19.262Z,6.60
2023-09-28T07:12:47.693Z,6.90
2023-09-28T07:15:16.087Z,6.90
2023-09-28T07:17:44.454Z,6.30
2023-09-28T07:20:15.573Z,6.10
2023-09-28T07:22:45.099Z,6.70
2023-09-28T07:25:13.613Z,6.10
2023-09-28T07:27:46.988Z,7.40
2023-09-28T07:30:16.893Z,7.20
2023-09-28T07:32:45.842Z,6.40
2023-09-28T07:35:15.577Z,6.70
2023-09-28T07:37:46.285Z,5.50
2023-09-28T07:40:25.737Z,7.00
2023-09-28T07:42:57.469Z,6.70
2023-09-28T07:45:26.822Z,6.50
2023-09-28T07:47:56.694Z,6.20
2023-09-28T07:50:26.031Z,7.60
2023-09-28T07:52:55.171Z,6.30
2023-09-28T07:55:23.876Z,7.20
2023-09-28T07:58:02.293Z,7.10
2023-09-28T08:00:38.313Z,6.10
2023-09-28T08:03:07.221Z,5.80
2023-09-28T08:05:35.573Z,6.90
2023-09-28T08:08:15.018Z,6.50
2023-09-28T08:10:46.164Z,6.70
2023-09-28T08:13:16.870Z,6.50
2023-09-28T08:15:46.689Z,5.90
2023-09-28T08:18:15.427Z,6.40
2023-09-28T08:20:55.176Z,6.70
2023-09-28T08:23:33.577Z,7.00
2023-09-28T08:26:02.058Z,6.30
2023-09-28T08:28:30.505Z,6.80
2023-09-28T08:31:04.614Z,6.70
2023-09-28T08:33:33.622Z,7.70
2023-09-28T08:36:02.057Z,6.40
2023-09-28T08:38:31.199Z,6.10
2023-09-28T08:41:04.525Z,6.70
2023-09-28T08:43:41.469Z,7.20
2023-09-28T08:46:13.488Z,6.80
2023-09-28T08:48:48.639Z,7.10
2023-09-28T08:51:18.297Z,5.60
2023-09-28T08:53:51.318Z,6.20
2023-09-28T08:56:20.645Z,5.70
2023-09-28T08:58:50.284Z,6.10
2023-09-28T09:01:20.165Z,7.10
2023-09-28T09:03:49.125Z,6.80
2023-09-28T09:06:18.062Z,6.50
2023-09-28T09:08:50.946Z,7.10
2023-09-28T09:11:20.921Z,6.10
2023-09-28T09:13:57.989Z,6.90
2023-09-28T09:16:29.176Z,8.20
2023-09-28T09:18:58.806Z,7.10
2023-09-28T09:21:41.534Z,6.80
2023-09-28T09:24:12.959Z,6.20
2023-09-28T09:26:44.484Z,5.90
2023-09-28T09:29:17.156Z,6.10
2023-09-28T09:31:48.604Z,6.60
2023-09-28T09:34:21.127Z,6.40
2023-09-28T09:36:56.770Z,7.10
2023-09-28T09:39:27.552Z,5.80
2023-09-28T09:41:56.617Z,7.50
2023-09-28T09:44:26.541Z,7.10
2023-09-28T09:46:56.196Z,6.60
2023-09-28T09:49:28.186Z,6.20
2023-09-28T09:52:03.814Z,6.60
2023-09-28T09:54:37.193Z,7.40
2023-09-28T09:57:07.026Z,6.70
2023-09-28T09:59:36.851Z,6.70
2023-09-28T10:02:11.604Z,5.40
2023-09-28T10:04:39.989Z,7.00
2023-09-28T10:07:13.938Z,6.30
2023-09-28T10:09:42.758Z,6.30
2023-09-28T10:12:12.530Z,6.10
2023-09-28T10:14:42.991Z,6.30
2023-09-28T10:17:13.863Z,7.30
2023-09-28T10:19:43.036Z,5.90
2023-09-28T10:22:14.361Z,7.00
2023-09-28T10:24:43.526Z,6.40
2023-09-28T10:27:12.597Z,6.90
2023-09-28T10:29:41.798Z,6.90
2023-09-28T10:32:31.330Z,6.70
2023-09-28T10:35:28.318Z,6.30
2023-09-28T10:38:23.472Z,6.10
2023-09-28T10:41:06.982Z,6.80
2023-09-28T10:43:44.688Z,6.30
2023-09-28T10:46:13.914Z,6.40
2023-09-28T10:48:43.842Z,5.90
2023-09-28T10:51:22.210Z,5.80
2023-09-28T10:53:50.504Z,6.60
2023-09-28T10:56:18.761Z,7.80
2023-09-28T10:58:47.833Z,6.80
2023-09-28T11:01:17.000Z,6.80
2023-09-28T11:03:47.729Z,6.40
2023-09-28T11:06:16.738Z,6.10
2023-09-28T11:08:51.030Z,7.20
2023-09-28T11:11:23.112Z,6.10
2023-09-28T11:13:51.472Z,6.50
2023-09-28T11:16:20.165Z,5.90
2023-09-28T11:18:50.446Z,5.90
2023-09-28T11:21:19.764Z,6.80
2023-09-28T11:23:49.347Z,6.10
2023-09-28T11:26:17.731Z,5.60
2023-09-28T11:28:46.594Z,6.30
2023-09-28T11:31:16.346Z,5.80
2023-09-28T11:33:46.766Z,6.00
2023-09-28T11:36:21.791Z,5.60
2023-09-28T11:38:54.849Z,5.30
2023-09-28T11:41:24.641Z,5.90
2023-09-28T11:43:55.665Z,5.70
2023-09-28T11:46:25.326Z,5.40
2023-09-28T11:49:15.781Z,6.80
2023-09-28T11:51:45.234Z,4.80
2023-09-28T11:54:16.094Z,5.40
2023-09-28T11:56:51.742Z,5.00
2023-09-28T11:59:21.771Z,5.80
2023-09-28T12:01:53.553Z,5.10
2023-09-28T12:04:52.584Z,5.20
2023-09-28T12:07:47.359Z,5.00
2023-09-28T12:11:05.140Z,5.40
2023-09-28T12:13:33.529Z,6.40
2023-09-28T12:16:02.077Z,5.20
2023-09-28T12:18:30.838Z,5.30
2023-09-28T12:20:59.733Z,3.90
2023-09-28T12:23:28.082Z,4.60
2023-09-28T12:25:56.755Z,5.30
2023-09-28T12:28:26.673Z,4.50
2023-09-28T12:30:55.160Z,4.70
2023-09-28T12:33:23.628Z,5.30
2023-09-28T12:35:52.325Z,4.80
2023-09-28T12:38:20.809Z,5.00
2023-09-28T12:40:49.517Z,5.40
2023-09-28T12:43:18.202Z,4.20
2023-09-28T12:45:46.502Z,5.00
2023-09-28T12:48:20.279Z,4.80
2023-09-28T12:50:48.615Z,4.90
2023-09-28T12:53:18.925Z,5.40
2023-09-28T12:55:47.676Z,4.80
2023-09-28T12:58:18.218Z,4.70
2023-09-28T13:00:46.818Z,5.10
2023-09-28T13:03:15.208Z,5.40
2023-09-28T13:05:44.237Z,5.30
2023-09-28T13:08:14.844Z,5.30
2023-09-28T13:10:44.337Z,4.10
2023-09-28T13:13:13.343Z,5.50
2023-09-28T13:15:41.646Z,4.00
2023-09-28T13:18:13.563Z,4.10
2023-09-28T13:20:47.350Z,4.50
2023-09-28T13:23:17.568Z,5.90
2023-09-28T13:25:45.944Z,3.90
2023-09-28T13:28:18.560Z,5.50
2023-09-28T13:30:48.752Z,5.20
2023-09-28T13:33:19.727Z,4.90
2023-09-28T13:35:48.181Z,5.00
2023-09-28T13:38:17.989Z,4.40
2023-09-28T13:40:54.224Z,4.80
2023-09-28T13:43:39.136Z,5.50
2023-09-28T13:46:07.788Z,4.50
2023-09-28T13:48:36.254Z,4.80
2023-09-28T13:51:08.544Z,5.10
2023-09-28T13:53:40.169Z,4.40
2023-09-28T13:56:09.395Z,4.70
2023-09-28T13:58:40.831Z,5.50
2023-09-28T14:01:40.725Z,4.70
2023-09-28T14:04:09.440Z,4.00
2023-09-28T14:06:38.492Z,5.40
2023-09-28T14:09:14.558Z,4.50
2023-09-28T14:15:17.469Z,5.40
2023-09-28T14:17:46.562Z,4.90
2023-09-28T14:20:18.217Z,4.90
2023-09-28T14:22:49.381Z,4.60
2023-09-28T14:25:19.291Z,5.10
2023-09-28T14:27:50.512Z,4.50
2023-09-28T14:30:19.303Z,4.20
2023-09-28T14:32:48.234Z,4.40
2023-09-28T14:35:17.113Z,3.80
2023-09-28T14:37:45.743Z,4.50
2023-09-28T14:40:16.890Z,3.90
2023-09-28T14:42:47.079Z,4.50
2023-09-28T14:45:16.366Z,4.20
2023-09-28T14:47:44.876Z,4.20
2023-09-28T14:50:15.237Z,5.20
2023-09-28T14:52:44.141Z,3.40
2023-09-28T14:55:12.518Z,4.50
2023-09-28T14:57:40.828Z,3.10
2023-09-28T15:00:13.881Z,3.20
2023-09-28T15:02:45.017Z,3.20
2023-09-28T15:05:13.819Z,3.80
2023-09-28T15:07:42.415Z,3.30
2023-09-28T15:10:11.542Z,3.00
2023-09-28T15:12:40.543Z,3.30
2023-09-28T15:15:09.406Z,4.40
2023-09-28T15:17:38.145Z,3.80
2023-09-28T15:20:10.977Z,3.30
2023-09-28T15:22:40.164Z,3.50
2023-09-28T15:25:11.884Z,3.20
2023-09-28T15:27:43.462Z,3.20
2023-09-28T15:30:13.348Z,3.40
2023-09-28T15:32:43.718Z,3.40
2023-09-28T15:35:13.960Z,3.40
2023-09-28T15:37:43.190Z,4.20
2023-09-28T15:40:12.191Z,3.80
2023-09-28T15:42:40.875Z,3.50
2023-09-28T15:45:11.473Z,3.60
2023-09-28T15:47:41.358Z,4.50
2023-09-28T15:50:13.023Z,3.60
2023-09-28T15:52:44.249Z,4.20
2023-09-28T15:55:13.293Z,3.90
2023-09-28T15:57:42.907Z,4.80
2023-09-28T16:00:34.462Z,3.90
2023-09-28T16:03:02.925Z,4.10
2023-09-28T16:05:33.912Z,3.80
2023-09-28T16:08:06.016Z,3.50
2023-09-28T16:10:37.054Z,3.90
2023-09-28T16:13:05.823Z,3.80
2023-09-28T16:15:34.059Z,3.60
2023-09-28T16:18:02.575Z,4.30
2023-09-28T16:20:33.476Z,3.60
2023-09-28T16:23:01.769Z,4.60
2023-09-28T16:25:30.078Z,4.20
2023-09-28T16:27:58.452Z,4.20
2023-09-28T16:30:27.977Z,4.20
2023-09-28T16:32:56.623Z,4.60
2023-09-28T16:35:25.399Z,4.10
2023-09-28T16:37:53.684Z,5.20
2023-09-28T16:40:22.443Z,4.60
2023-09-28T16:42:50.879Z,4.40
2023-09-28T16:45:19.930Z,4.90
2023-09-28T16:47:48.390Z,4.50
2023-09-28T16:50:16.957Z,4.20
2023-09-28T16:52:45.420Z,4.50
2023-09-28T16:55:13.694Z,4.20
2023-09-28T16:57:41.924Z,4.60
2023-09-28T17:00:11.305Z,5.10
2023-09-28T17:02:39.789Z,4.80
2023-09-28T17:05:12.984Z,4.40
2023-09-28T17:07:41.448Z,4.60
2023-09-28T17:10:09.965Z,5.40
2023-09-28T17:12:44.694Z,5.20
2023-09-28T17:17:42.866Z,4.70
2023-09-28T17:20:12.253Z,5.10
2023-09-28T17:22:41.022Z,4.60
2023-09-28T17:25:14.122Z,4.60
2023-09-28T17:27:42.416Z,4.60
2023-09-28T17:30:13.489Z,4.40
2023-09-28T17:32:46.330Z,5.30
2023-09-28T17:35:14.993Z,4.60
2023-09-28T17:37:43.618Z,4.30
2023-09-28T17:40:20.094Z,3.80
2023-09-28T17:42:50.540Z,4.60
2023-09-28T17:45:20.713Z,4.30
2023-09-28T17:47:50.776Z,3.40
2023-09-28T17:50:22.375Z,3.50
2023-09-28T17:52:53.552Z,4.10
2023-09-28T17:55:22.018Z,3.50
2023-09-28T17:57:50.247Z,4.30
2023-09-28T18:00:18.541Z,4.20
2023-09-28T18:02:49.802Z,3.70
2023-09-28T18:05:19.770Z,3.60
2023-09-28T18:07:48.287Z,3.60
2023-09-28T18:10:17.399Z,3.50
2023-09-28T18:12:48.442Z,3.60
2023-09-28T18:15:20.138Z,3.20
2023-09-28T18:17:58.092Z,3.10
2023-09-28T18:20:31.459Z,3.40
2023-09-28T18:24:01.630Z,2.70
2023-09-28T18:26:35.153Z,3.30
2023-09-28T18:29:12.955Z,2.80
2023-09-28T18:31:42.047Z,2.80
2023-09-28T18:34:11.433Z,3.30
2023-09-28T18:37:03.015Z,3.00
2023-09-28T18:39:37.019Z,3.00
2023-09-28T18:42:19.859Z,2.90
2023-09-28T18:44:57.491Z,3.30
2023-09-28T18:47:32.357Z,3.10
2023-09-28T18:52:36.157Z,3.10
2023-09-28T18:55:07.114Z,2.80
2023-09-28T18:57:38.522Z,2.90
2023-09-28T19:00:12.808Z,3.70
2023-09-28T19:02:41.226Z,3.40
2023-09-28T19:05:11.361Z,4.40
2023-09-28T19:07:40.031Z,3.60
2023-09-28T19:10:12.705Z,3.40
2023-09-28T19:12:41.142Z,3.10
2023-09-28T19:15:10.601Z,3.10
2023-09-28T19:17:39.198Z,3.90
2023-09-28T19:20:08.388Z,3.10
2023-09-28T19:22:36.673Z,3.40
2023-09-28T19:25:05.453Z,3.40
2023-09-28T19:27:39.381Z,3.50
2023-09-28T19:30:11.250Z,3.80
2023-09-28T19:32:43.821Z,3.90
2023-09-28T19:35:12.356Z,3.50
2023-09-28T19:37:41.957Z,3.70
2023-09-28T19:40:10.875Z,3.70
2023-09-28T19:42:41.823Z,3.80
2023-09-28T19:45:11.265Z,4.10
2023-09-28T19:47:39.740Z,4.00
2023-09-28T19:50:09.112Z,3.50
2023-09-28T19:52:37.330Z,3.20
2023-09-28T19:55:06.120Z,3.80
2023-09-28T19:57:35.064Z,4.10
2023-09-28T20:00:09.662Z,3.80
2023-09-28T20:02:37.945Z,4.30
2023-09-28T20:05:07.149Z,3.90
2023-09-28T20:07:35.493Z,3.80
2023-09-28T20:10:03.814Z,3.80
2023-09-28T20:12:32.071Z,3.30
2023-09-28T20:15:00.315Z,3.40
2023-09-28T20:17:28.648Z,4.50
2023-09-28T20:19:56.976Z,4.70
2023-09-28T20:22:26.027Z,4.50
2023-09-28T20:24:54.350Z,4.10
2023-09-28T20:27:22.680Z,4.30
2023-09-28T20:29:51.208Z,3.30
2023-09-28T20:32:19.583Z,3.70
2023-09-28T20:34:47.998Z,4.30
2023-09-28T20:37:16.246Z,3.80
2023-09-28T20:39:44.417Z,4.80
2023-09-28T20:42:12.745Z,4.00
2023-09-28T20:44:41.186Z,2.90
2023-09-28T20:47:09.662Z,3.50
2023-09-28T20:49:38.271Z,3.00
2023-09-28T20:52:09.009Z,4.50
2023-09-28T20:54:37.246Z,4.20
2023-09-28T20:57:05.554Z,3.50
2023-09-28T20:59:33.752Z,3.70
2023-09-28T21:02:01.915Z,3.90
2023-09-28T21:04:30.658Z,4.40
2023-09-28T21:06:58.984Z,4.30
2023-09-28T21:09:27.621Z,3.80
2023-09-28T21:11:56.009Z,3.80
2023-09-28T21:14:24.547Z,4.10
2023-09-28T21:16:52.847Z,4.70
2023-09-28T21:19:21.142Z,4.30
2023-09-28T21:21:49.448Z,4.20
2023-09-28T21:24:20.108Z,3.70
2023-09-28T21:26:48.580Z,3.50
2023-09-28T21:29:16.908Z,4.20
2023-09-28T21:31:45.355Z,4.00
2023-09-28T21:34:14.145Z,3.30
2023-09-28T21:36:42.791Z,4.50
2023-09-28T21:39:10.957Z,4.30
2023-09-28T21:41:39.605Z,3.60
2023-09-28T21:44:08.573Z,3.40
2023-09-28T21:46:36.753Z,4.30
2023-09-28T21:49:05.689Z,4.70
2023-09-28T21:51:34.225Z,4.40
2023-09-28T21:54:02.404Z,4.60
2023-09-28T21:56:30.685Z,3.50
2023-09-28T21:59:01.813Z,3.70
2023-09-28T22:01:30.169Z,3.60
2023-09-28T22:03:58.556Z,4.00
2023-09-28T22:06:27.583Z,3.90
2023-09-28T22:08:56.060Z,4.60
2023-09-28T22:11:24.706Z,4.20
2023-09-28T22:13:53.097Z,4.10
2023-09-28T22:16:21.538Z,3.70
2023-09-28T22:18:50.036Z,4.10
2023-09-28T22:21:23.033Z,5.40
2023-09-28T22:23:55.184Z,4.40
2023-09-28T22:26:23.569Z,4.20
2023-09-28T22:28:52.895Z,4.00
2023-09-28T22:31:21.371Z,4.30
2023-09-28T22:33:50.079Z,4.00
2023-09-28T22:36:18.350Z,3.90
2023-09-28T22:38:46.621Z,3.70
2023-09-28T22:41:18.387Z,4.00
2023-09-28T22:43:46.600Z,4.20
2023-09-28T22:46:14.838Z,4.00
2023-09-28T22:48:43.141Z,4.70
2023-09-28T22:51:12.037Z,4.90
2023-09-28T22:53:40.821Z,4.10
2023-09-28T22:56:14.803Z,3.90
2023-09-28T22:58:43.138Z,4.40
2023-09-28T23:01:11.607Z,4.00
2023-09-28T23:03:40.335Z,4.40
2023-09-28T23:06:09.006Z,4.60
2023-09-28T23:08:37.310Z,4.20
2023-09-28T23:11:06.222Z,3.90
2023-09-28T23:13:37.204Z,3.80
2023-09-28T23:16:06.840Z,4.30
2023-09-28T23:18:36.470Z,5.30
2023-09-28T23:21:09.933Z,4.50
2023-09-28T23:23:40.299Z,4.40
2023-09-28T23:26:11.776Z,4.80
2023-09-28T23:28:46.828Z,6.00
2023-09-28T23:31:15.139Z,6.00
2023-09-28T23:33:44.572Z,5.20
2023-09-28T23:36:16.661Z,4.90
2023-09-28T23:38:44.974Z,5.10
2023-09-28T23:41:13.822Z,5.10
2023-09-28T23:43:42.038Z,4.90
2023-09-28T23:46:10.698Z,4.40
2023-09-28T23:48:39.129Z,6.30
2023-09-28T23:51:08.965Z,5.10
2023-09-28T23:53:37.366Z,5.80
2023-09-28T23:56:05.640Z,4.80
2023-09-28T23:58:34.019Z,4.70
